PWSweather.com
Personal Weather Stations
Station Observations
MENWDWX1
Menstrie, ScotlandGB

MenstrieScotlandGB

Lat: 56.148322, Lon: -3.85483

Elevation: 62

Station Type: Davis Vantage Pro 2

High Low Average
Temperature 39.3°F4.1°C 36.6°F2.6°C 38.5°F3.6°C
Dew Point 33.0°F0.6°C 30.1°F-1.1°C 31.8°F-0.1°C
Winds 16.1 mph 25.9 kmh Calm Calm 7.0 mph E11.3 kmh E
Wind Gusts 20.7 mph33.3 kmh 2.3 mph3.7 kmh 10.0 mph16.1 kmh
Humidity 78% 76% 77%
Pressure 29.98 in1015.2 mb 29.47 in998.0 mb -
Precipitation 0.00 in0.0 mm - -
Hour Temp Dew Point Humidity Winds Wind Gusts Pressure Precip Precip Rate Daily Precip Total
12:00 AM 38.8°F3.8°C 31.9°F-0.1°C 76% 8.1 mph E13.0 kmh E 12.7 mph20.4 kmh 29.98 in1015.2 mb - 0.00 in0.0 mm 0.00 in0.0 mm
12:05 AM 38.9°F3.8°C 32.0°F0.0°C 76% 12.7 mph E20.4 kmh E 16.1 mph25.9 kmh 29.97 in1014.9 mb - 0.00 in0.0 mm 0.00 in0.0 mm
12:10 AM 39.0°F3.9°C 32.1°F0.1°C 76% 9.2 mph E14.8 kmh E 13.8 mph22.2 kmh 29.96 in1014.6 mb - 0.00 in0.0 mm 0.00 in0.0 mm
12:15 AM 39.0°F3.9°C 32.1°F0.1°C 76% 9.2 mph E14.8 kmh E 13.8 mph22.2 kmh 29.96 in1014.6 mb - 0.00 in0.0 mm 0.00 in0.0 mm
12:20 AM 39.0°F3.9°C 32.1°F0.1°C 76% 10.4 mph E16.7 kmh E 17.3 mph27.8 kmh 29.95 in1014.2 mb - 0.00 in0.0 mm 0.00 in0.0 mm
12:25 AM 39.1°F3.9°C 32.2°F0.1°C 76% 8.1 mph E13.0 kmh E 13.8 mph22.2 kmh 29.95 in1014.2 mb - 0.00 in0.0 mm 0.00 in0.0 mm
12:30 AM 39.1°F3.9°C 32.2°F0.1°C 76% 9.2 mph E14.8 kmh E 12.7 mph20.4 kmh 29.94 in1013.9 mb - 0.00 in0.0 mm 0.00 in0.0 mm
12:35 AM 39.1°F3.9°C 32.2°F0.1°C 76% 10.4 mph E16.7 kmh E 11.5 mph18.5 kmh 29.94 in1013.9 mb - 0.00 in0.0 mm 0.00 in0.0 mm
12:40 AM 39.1°F3.9°C 32.2°F0.1°C 76% 9.2 mph E14.8 kmh E 12.7 mph20.4 kmh 29.94 in1013.9 mb - 0.00 in0.0 mm 0.00 in0.0 mm
12:45 AM 39.0°F3.9°C 32.1°F0.1°C 76% 6.9 mph E11.1 kmh E 8.1 mph13.0 kmh 29.93 in1013.5 mb - 0.00 in0.0 mm 0.00 in0.0 mm
12:50 AM 38.8°F3.8°C 31.9°F-0.1°C 76% 12.7 mph E20.4 kmh E 19.6 mph31.5 kmh 29.93 in1013.5 mb - 0.00 in0.0 mm 0.00 in0.0 mm
12:55 AM 38.8°F3.8°C 31.9°F-0.1°C 76% 9.2 mph ESE14.8 kmh ESE 12.7 mph20.4 kmh 29.93 in1013.5 mb - 0.00 in0.0 mm 0.00 in0.0 mm
01:00 AM 38.6°F3.7°C 31.7°F-0.2°C 76% 12.7 mph E20.4 kmh E 15.0 mph24.1 kmh 29.92 in1013.2 mb - 0.00 in0.0 mm 0.00 in0.0 mm
01:05 AM 38.6°F3.7°C 31.7°F-0.2°C 76% 10.4 mph E16.7 kmh E 13.8 mph22.2 kmh 29.93 in1013.5 mb - 0.00 in0.0 mm 0.00 in0.0 mm
01:10 AM 38.6°F3.7°C 31.7°F-0.2°C 76% 10.4 mph ESE16.7 kmh ESE 12.7 mph20.4 kmh 29.92 in1013.2 mb - 0.00 in0.0 mm 0.00 in0.0 mm
01:15 AM 38.7°F3.7°C 31.8°F-0.1°C 76% 8.1 mph E13.0 kmh E 13.8 mph22.2 kmh 29.92 in1013.2 mb - 0.00 in0.0 mm 0.00 in0.0 mm
01:20 AM 38.6°F3.7°C 31.7°F-0.2°C 76% 5.8 mph E9.3 kmh E 12.7 mph20.4 kmh 29.92 in1013.2 mb - 0.00 in0.0 mm 0.00 in0.0 mm
01:25 AM 38.5°F3.6°C 31.6°F-0.2°C 76% 11.5 mph E18.5 kmh E 16.1 mph25.9 kmh 29.92 in1013.2 mb - 0.00 in0.0 mm 0.00 in0.0 mm
01:30 AM 38.7°F3.7°C 31.8°F-0.1°C 76% 10.4 mph E16.7 kmh E 11.5 mph18.5 kmh 29.91 in1012.9 mb - 0.00 in0.0 mm 0.00 in0.0 mm
01:35 AM 38.7°F3.7°C 31.8°F-0.1°C 76% 8.1 mph ESE13.0 kmh ESE 11.5 mph18.5 kmh 29.91 in1012.9 mb - 0.00 in0.0 mm 0.00 in0.0 mm
01:40 AM 38.5°F3.6°C 31.6°F-0.2°C 76% 5.8 mph ESE9.3 kmh ESE 10.4 mph16.7 kmh 29.91 in1012.9 mb - 0.00 in0.0 mm 0.00 in0.0 mm
01:45 AM 38.4°F3.6°C 31.5°F-0.3°C 76% 10.4 mph ESE16.7 kmh ESE 13.8 mph22.2 kmh 29.90 in1012.5 mb - 0.00 in0.0 mm 0.00 in0.0 mm
01:50 AM 38.5°F3.6°C 31.6°F-0.2°C 76% 8.1 mph E13.0 kmh E 12.7 mph20.4 kmh 29.90 in1012.5 mb - 0.00 in0.0 mm 0.00 in0.0 mm
01:55 AM 38.7°F3.7°C 31.8°F-0.1°C 76% 10.4 mph E16.7 kmh E 12.7 mph20.4 kmh 29.89 in1012.2 mb - 0.00 in0.0 mm 0.00 in0.0 mm
02:00 AM 38.9°F3.8°C 32.0°F0.0°C 76% 8.1 mph E13.0 kmh E 18.4 mph29.6 kmh 29.89 in1012.2 mb - 0.00 in0.0 mm 0.00 in0.0 mm
02:05 AM 39.0°F3.9°C 32.1°F0.1°C 76% 9.2 mph E14.8 kmh E 12.7 mph20.4 kmh 29.89 in1012.2 mb - 0.00 in0.0 mm 0.00 in0.0 mm
02:10 AM 38.9°F3.8°C 32.0°F0.0°C 76% 6.9 mph ESE11.1 kmh ESE 10.4 mph16.7 kmh 29.89 in1012.2 mb - 0.00 in0.0 mm 0.00 in0.0 mm
02:15 AM 38.7°F3.7°C 31.8°F-0.1°C 76% 6.9 mph ESE11.1 kmh ESE 10.4 mph16.7 kmh 29.89 in1012.2 mb - 0.00 in0.0 mm 0.00 in0.0 mm
02:20 AM 38.7°F3.7°C 31.8°F-0.1°C 76% 9.2 mph E14.8 kmh E 10.4 mph16.7 kmh 29.89 in1012.2 mb - 0.00 in0.0 mm 0.00 in0.0 mm
02:25 AM 38.8°F3.8°C 31.9°F-0.1°C 76% 6.9 mph ESE11.1 kmh ESE 8.1 mph13.0 kmh 29.89 in1012.2 mb - 0.00 in0.0 mm 0.00 in0.0 mm
02:30 AM 38.7°F3.7°C 31.8°F-0.1°C 76% 6.9 mph E11.1 kmh E 12.7 mph20.4 kmh 29.89 in1012.2 mb - 0.00 in0.0 mm 0.00 in0.0 mm
02:35 AM 38.8°F3.8°C 31.9°F-0.1°C 76% 9.2 mph E14.8 kmh E 12.7 mph20.4 kmh 29.88 in1011.9 mb - 0.00 in0.0 mm 0.00 in0.0 mm
02:40 AM 38.9°F3.8°C 32.0°F0.0°C 76% 6.9 mph ESE11.1 kmh ESE 11.5 mph18.5 kmh 29.88 in1011.9 mb - 0.00 in0.0 mm 0.00 in0.0 mm
02:45 AM 38.9°F3.8°C 32.0°F0.0°C 76% 9.2 mph SE14.8 kmh SE 11.5 mph18.5 kmh 29.88 in1011.9 mb - 0.00 in0.0 mm 0.00 in0.0 mm
02:50 AM 38.7°F3.7°C 31.8°F-0.1°C 76% 6.9 mph E11.1 kmh E 15.0 mph24.1 kmh 29.87 in1011.5 mb - 0.00 in0.0 mm 0.00 in0.0 mm
02:55 AM 38.8°F3.8°C 31.9°F-0.1°C 76% 9.2 mph ESE14.8 kmh ESE 12.7 mph20.4 kmh 29.87 in1011.5 mb - 0.00 in0.0 mm 0.00 in0.0 mm
03:00 AM 38.8°F3.8°C 31.9°F-0.1°C 76% 6.9 mph E11.1 kmh E 12.7 mph20.4 kmh 29.88 in1011.9 mb - 0.00 in0.0 mm 0.00 in0.0 mm
03:05 AM 38.9°F3.8°C 32.0°F0.0°C 76% 8.1 mph E13.0 kmh E 13.8 mph22.2 kmh 29.88 in1011.9 mb - 0.00 in0.0 mm 0.00 in0.0 mm
03:10 AM 38.9°F3.8°C 32.0°F0.0°C 76% 8.1 mph ESE13.0 kmh ESE 11.5 mph18.5 kmh 29.87 in1011.5 mb - 0.00 in0.0 mm 0.00 in0.0 mm
03:15 AM 38.7°F3.7°C 31.8°F-0.1°C 76% 5.8 mph ESE9.3 kmh ESE 9.2 mph14.8 kmh 29.87 in1011.5 mb - 0.00 in0.0 mm 0.00 in0.0 mm
03:20 AM 38.6°F3.7°C 31.7°F-0.2°C 76% 4.6 mph E7.4 kmh E 5.8 mph9.3 kmh 29.87 in1011.5 mb - 0.00 in0.0 mm 0.00 in0.0 mm
03:25 AM 38.6°F3.7°C 31.7°F-0.2°C 76% 8.1 mph E13.0 kmh E 10.4 mph16.7 kmh 29.87 in1011.5 mb - 0.00 in0.0 mm 0.00 in0.0 mm
03:30 AM 38.8°F3.8°C 31.9°F-0.1°C 76% 6.9 mph E11.1 kmh E 8.1 mph13.0 kmh 29.87 in1011.5 mb - 0.00 in0.0 mm 0.00 in0.0 mm
03:35 AM 38.9°F3.8°C 32.0°F0.0°C 76% 10.4 mph E16.7 kmh E 17.3 mph27.8 kmh 29.86 in1011.2 mb - 0.00 in0.0 mm 0.00 in0.0 mm
03:40 AM 39.1°F3.9°C 32.1°F0.1°C 76% 6.9 mph ESE11.1 kmh ESE 9.2 mph14.8 kmh 29.86 in1011.2 mb - 0.00 in0.0 mm 0.00 in0.0 mm
03:45 AM 39.1°F3.9°C 32.2°F0.1°C 76% 5.8 mph E9.3 kmh E 10.4 mph16.7 kmh 29.86 in1011.2 mb - 0.00 in0.0 mm 0.00 in0.0 mm
03:50 AM 38.9°F3.8°C 32.0°F0.0°C 76% 5.8 mph E9.3 kmh E 9.2 mph14.8 kmh 29.86 in1011.2 mb - 0.00 in0.0 mm 0.00 in0.0 mm
03:55 AM 38.8°F3.8°C 31.9°F-0.1°C 76% 6.9 mph ESE11.1 kmh ESE 10.4 mph16.7 kmh 29.86 in1011.2 mb - 0.00 in0.0 mm 0.00 in0.0 mm
04:00 AM 38.8°F3.8°C 31.9°F-0.1°C 76% 8.1 mph E13.0 kmh E 10.4 mph16.7 kmh 29.86 in1011.2 mb - 0.00 in0.0 mm 0.00 in0.0 mm
04:05 AM 38.8°F3.8°C 31.9°F-0.1°C 76% 6.9 mph E11.1 kmh E 10.4 mph16.7 kmh 29.85 in1010.8 mb - 0.00 in0.0 mm 0.00 in0.0 mm
04:10 AM 38.8°F3.8°C 31.9°F-0.1°C 76% 9.2 mph E14.8 kmh E 11.5 mph18.5 kmh 29.85 in1010.8 mb - 0.00 in0.0 mm 0.00 in0.0 mm
04:15 AM 38.8°F3.8°C 31.9°F-0.1°C 76% 9.2 mph E14.8 kmh E 13.8 mph22.2 kmh 29.85 in1010.8 mb - 0.00 in0.0 mm 0.00 in0.0 mm
04:20 AM 38.8°F3.8°C 31.9°F-0.1°C 76% 6.9 mph E11.1 kmh E 10.4 mph16.7 kmh 29.84 in1010.5 mb - 0.00 in0.0 mm 0.00 in0.0 mm
04:25 AM 38.8°F3.8°C 31.8°F-0.1°C 76% 5.8 mph E9.3 kmh E 8.1 mph13.0 kmh 29.84 in1010.5 mb - 0.00 in0.0 mm 0.00 in0.0 mm
04:30 AM 38.7°F3.7°C 31.8°F-0.1°C 76% 5.8 mph E9.3 kmh E 10.4 mph16.7 kmh 29.84 in1010.5 mb - 0.00 in0.0 mm 0.00 in0.0 mm
04:35 AM 38.6°F3.7°C 31.7°F-0.2°C 76% 5.8 mph ESE9.3 kmh ESE 9.2 mph14.8 kmh 29.84 in1010.5 mb - 0.00 in0.0 mm 0.00 in0.0 mm
04:40 AM 38.7°F3.7°C 31.8°F-0.1°C 76% 6.9 mph E11.1 kmh E 11.5 mph18.5 kmh 29.84 in1010.5 mb - 0.00 in0.0 mm 0.00 in0.0 mm
04:45 AM 38.8°F3.8°C 31.9°F-0.1°C 76% 6.9 mph E11.1 kmh E 10.4 mph16.7 kmh 29.84 in1010.5 mb - 0.00 in0.0 mm 0.00 in0.0 mm
04:50 AM 38.9°F3.8°C 32.0°F0.0°C 76% 5.8 mph E9.3 kmh E 8.1 mph13.0 kmh 29.83 in1010.2 mb - 0.00 in0.0 mm 0.00 in0.0 mm
04:55 AM 38.8°F3.8°C 31.9°F-0.1°C 76% 6.9 mph E11.1 kmh E 12.7 mph20.4 kmh 29.83 in1010.2 mb - 0.00 in0.0 mm 0.00 in0.0 mm
05:00 AM 38.9°F3.8°C 32.0°F0.0°C 76% 5.8 mph E9.3 kmh E 9.2 mph14.8 kmh 29.83 in1010.2 mb - 0.00 in0.0 mm 0.00 in0.0 mm
05:05 AM 38.9°F3.8°C 32.0°F0.0°C 76% 9.2 mph E14.8 kmh E 10.4 mph16.7 kmh 29.82 in1009.8 mb - 0.00 in0.0 mm 0.00 in0.0 mm
05:10 AM 38.9°F3.8°C 32.0°F0.0°C 76% 6.9 mph E11.1 kmh E 10.4 mph16.7 kmh 29.83 in1010.2 mb - 0.00 in0.0 mm 0.00 in0.0 mm
05:15 AM 38.9°F3.8°C 32.0°F0.0°C 76% 9.2 mph E14.8 kmh E 15.0 mph24.1 kmh 29.82 in1009.8 mb - 0.00 in0.0 mm 0.00 in0.0 mm
05:20 AM 39.0°F3.9°C 32.1°F0.1°C 76% 9.2 mph E14.8 kmh E 11.5 mph18.5 kmh 29.82 in1009.8 mb - 0.00 in0.0 mm 0.00 in0.0 mm
05:25 AM 39.0°F3.9°C 32.0°F0.0°C 76% 6.9 mph E11.1 kmh E 8.1 mph13.0 kmh 29.82 in1009.8 mb - 0.00 in0.0 mm 0.00 in0.0 mm
05:30 AM 38.9°F3.8°C 32.0°F0.0°C 76% 6.9 mph ESE11.1 kmh ESE 11.5 mph18.5 kmh 29.83 in1010.2 mb - 0.00 in0.0 mm 0.00 in0.0 mm
05:35 AM 38.8°F3.8°C 31.9°F-0.1°C 76% 4.6 mph E7.4 kmh E 8.1 mph13.0 kmh 29.82 in1009.8 mb - 0.00 in0.0 mm 0.00 in0.0 mm
05:40 AM 38.6°F3.7°C 31.7°F-0.2°C 76% 8.1 mph E13.0 kmh E 10.4 mph16.7 kmh 29.82 in1009.8 mb - 0.00 in0.0 mm 0.00 in0.0 mm
05:45 AM 38.6°F3.7°C 31.7°F-0.2°C 76% 4.6 mph E7.4 kmh E 6.9 mph11.1 kmh 29.82 in1009.8 mb - 0.00 in0.0 mm 0.00 in0.0 mm
05:50 AM 38.5°F3.6°C 31.6°F-0.2°C 76% 5.8 mph ESE9.3 kmh ESE 10.4 mph16.7 kmh 29.81 in1009.5 mb - 0.00 in0.0 mm 0.00 in0.0 mm
05:55 AM 38.3°F3.5°C 31.4°F-0.3°C 76% 5.8 mph E9.3 kmh E 8.1 mph13.0 kmh 29.80 in1009.1 mb - 0.00 in0.0 mm 0.00 in0.0 mm
06:00 AM 38.3°F3.5°C 31.7°F-0.2°C 77% 4.6 mph E7.4 kmh E 8.1 mph13.0 kmh 29.80 in1009.1 mb - 0.00 in0.0 mm 0.00 in0.0 mm
06:05 AM 38.3°F3.5°C 31.7°F-0.2°C 77% 3.5 mph E5.6 kmh E 8.1 mph13.0 kmh 29.80 in1009.1 mb - 0.00 in0.0 mm 0.00 in0.0 mm
06:10 AM 38.3°F3.5°C 31.7°F-0.2°C 77% 2.3 mph ESE3.7 kmh ESE 3.5 mph5.6 kmh 29.80 in1009.1 mb - 0.00 in0.0 mm 0.00 in0.0 mm
06:15 AM 38.2°F3.4°C 31.3°F-0.4°C 76% 4.6 mph ESE7.4 kmh ESE 6.9 mph11.1 kmh 29.80 in1009.1 mb - 0.00 in0.0 mm 0.00 in0.0 mm
06:20 AM 38.2°F3.4°C 31.3°F-0.4°C 76% 8.1 mph E13.0 kmh E 11.5 mph18.5 kmh 29.80 in1009.1 mb - 0.00 in0.0 mm 0.00 in0.0 mm
06:25 AM 38.2°F3.4°C 31.3°F-0.4°C 76% 6.9 mph E11.1 kmh E 10.4 mph16.7 kmh 29.80 in1009.1 mb - 0.00 in0.0 mm 0.00 in0.0 mm
06:30 AM 38.2°F3.4°C 31.3°F-0.4°C 76% 5.8 mph ESE9.3 kmh ESE 9.2 mph14.8 kmh 29.79 in1008.8 mb - 0.00 in0.0 mm 0.00 in0.0 mm
06:35 AM 38.2°F3.4°C 31.3°F-0.4°C 76% 2.3 mph E3.7 kmh E 3.5 mph5.6 kmh 29.79 in1008.8 mb - 0.00 in0.0 mm 0.00 in0.0 mm
06:40 AM 38.1°F3.4°C 31.2°F-0.4°C 76% 3.5 mph ESE5.6 kmh ESE 6.9 mph11.1 kmh 29.79 in1008.8 mb - 0.00 in0.0 mm 0.00 in0.0 mm
06:45 AM 38.0°F3.3°C 31.1°F-0.5°C 76% 4.6 mph ESE7.4 kmh ESE 6.9 mph11.1 kmh 29.78 in1008.5 mb - 0.00 in0.0 mm 0.00 in0.0 mm
06:50 AM 37.9°F3.3°C 31.3°F-0.4°C 77% 3.5 mph ENE5.6 kmh ENE 3.5 mph5.6 kmh 29.78 in1008.5 mb - 0.00 in0.0 mm 0.00 in0.0 mm
06:55 AM 37.7°F3.2°C 31.2°F-0.4°C 77% 2.3 mph ENE3.7 kmh ENE 3.5 mph5.6 kmh 29.78 in1008.5 mb - 0.00 in0.0 mm 0.00 in0.0 mm
07:00 AM 37.5°F3.1°C 30.9°F-0.6°C 77% 4.6 mph E7.4 kmh E 5.8 mph9.3 kmh 29.78 in1008.5 mb - 0.00 in0.0 mm 0.00 in0.0 mm
07:05 AM 37.5°F3.1°C 30.9°F-0.6°C 77% 6.9 mph E11.1 kmh E 9.2 mph14.8 kmh 29.77 in1008.1 mb - 0.00 in0.0 mm 0.00 in0.0 mm
07:10 AM 37.5°F3.1°C 30.9°F-0.6°C 77% 3.5 mph ENE5.6 kmh ENE 4.6 mph7.4 kmh 29.77 in1008.1 mb - 0.00 in0.0 mm 0.00 in0.0 mm
07:15 AM 37.4°F3.0°C 30.8°F-0.7°C 77% 3.5 mph E5.6 kmh E 8.1 mph13.0 kmh 29.76 in1007.8 mb - 0.00 in0.0 mm 0.00 in0.0 mm
07:20 AM 37.3°F2.9°C 30.7°F-0.7°C 77% 3.5 mph ENE5.6 kmh ENE 3.5 mph5.6 kmh 29.76 in1007.8 mb - 0.00 in0.0 mm 0.00 in0.0 mm
07:25 AM 37.2°F2.9°C 30.7°F-0.7°C 77% 4.6 mph E7.4 kmh E 8.1 mph13.0 kmh 29.76 in1007.8 mb - 0.00 in0.0 mm 0.00 in0.0 mm
07:30 AM 37.2°F2.9°C 30.7°F-0.7°C 77% 6.9 mph E11.1 kmh E 8.1 mph13.0 kmh 29.76 in1007.8 mb - 0.00 in0.0 mm 0.00 in0.0 mm
07:35 AM 37.3°F2.9°C 30.7°F-0.7°C 77% 1.2 mph NE1.9 kmh NE 2.3 mph3.7 kmh 29.76 in1007.8 mb - 0.00 in0.0 mm 0.00 in0.0 mm
07:40 AM 37.1°F2.8°C 30.6°F-0.8°C 77% 2.3 mph ENE3.7 kmh ENE 2.3 mph3.7 kmh 29.76 in1007.8 mb - 0.00 in0.0 mm 0.00 in0.0 mm
07:45 AM 37.0°F2.8°C 30.4°F-0.9°C 77% 1.2 mph ENE1.9 kmh ENE 2.3 mph3.7 kmh 29.76 in1007.8 mb - 0.00 in0.0 mm 0.00 in0.0 mm
07:50 AM 36.9°F2.7°C 30.3°F-0.9°C 77% 1.2 mph SE1.9 kmh SE 3.5 mph5.6 kmh 29.76 in1007.8 mb - 0.00 in0.0 mm 0.00 in0.0 mm
07:55 AM 36.9°F2.7°C 30.4°F-0.9°C 77% 4.6 mph E7.4 kmh E 6.9 mph11.1 kmh 29.75 in1007.5 mb - 0.00 in0.0 mm 0.00 in0.0 mm
08:00 AM 37.0°F2.8°C 30.5°F-0.8°C 77% 5.8 mph ESE9.3 kmh ESE 6.9 mph11.1 kmh 29.75 in1007.5 mb - 0.00 in0.0 mm 0.00 in0.0 mm
08:05 AM 37.0°F2.8°C 30.5°F-0.8°C 77% 3.5 mph ENE5.6 kmh ENE 3.5 mph5.6 kmh 29.76 in1007.8 mb - 0.00 in0.0 mm 0.00 in0.0 mm
08:10 AM 36.8°F2.7°C 30.3°F-0.9°C 77% 3.5 mph ENE5.6 kmh ENE 3.5 mph5.6 kmh 29.76 in1007.8 mb - 0.00 in0.0 mm 0.00 in0.0 mm
08:15 AM 36.6°F2.6°C 30.1°F-1.1°C 77% 3.5 mph E5.6 kmh E 3.5 mph5.6 kmh 29.76 in1007.8 mb - 0.00 in0.0 mm 0.00 in0.0 mm
08:20 AM 36.6°F2.6°C 30.1°F-1.1°C 77% 1.2 mph NE1.9 kmh NE 4.6 mph7.4 kmh 29.75 in1007.5 mb - 0.00 in0.0 mm 0.00 in0.0 mm
08:25 AM 36.8°F2.7°C 30.2°F-1.0°C 77% 4.6 mph ESE7.4 kmh ESE 6.9 mph11.1 kmh 29.75 in1007.5 mb - 0.00 in0.0 mm 0.00 in0.0 mm
08:30 AM 37.0°F2.8°C 30.5°F-0.8°C 77% 3.5 mph E5.6 kmh E 8.1 mph13.0 kmh 29.75 in1007.5 mb - 0.00 in0.0 mm 0.00 in0.0 mm
08:35 AM 37.2°F2.9°C 30.7°F-0.7°C 77% 3.5 mph E5.6 kmh E 6.9 mph11.1 kmh 29.75 in1007.5 mb - 0.00 in0.0 mm 0.00 in0.0 mm
08:40 AM 37.3°F2.9°C 30.8°F-0.7°C 77% 3.5 mph E5.6 kmh E 6.9 mph11.1 kmh 29.75 in1007.5 mb - 0.00 in0.0 mm 0.00 in0.0 mm
08:45 AM 37.2°F2.9°C 30.7°F-0.7°C 77% 1.2 mph NNE1.9 kmh NNE 3.5 mph5.6 kmh 29.75 in1007.5 mb - 0.00 in0.0 mm 0.00 in0.0 mm
08:50 AM 36.9°F2.7°C 30.4°F-0.9°C 77% Calm Calm 3.5 mph5.6 kmh 29.75 in1007.5 mb - 0.00 in0.0 mm 0.00 in0.0 mm
08:55 AM 36.7°F2.6°C 30.2°F-1.0°C 77% 2.3 mph E3.7 kmh E 3.5 mph5.6 kmh 29.75 in1007.5 mb - 0.00 in0.0 mm 0.00 in0.0 mm
09:00 AM 36.9°F2.7°C 30.4°F-0.9°C 77% 2.3 mph NE3.7 kmh NE 3.5 mph5.6 kmh 29.74 in1007.1 mb - 0.00 in0.0 mm 0.00 in0.0 mm
09:05 AM 37.0°F2.8°C 30.5°F-0.8°C 77% 9.2 mph ESE14.8 kmh ESE 11.5 mph18.5 kmh 29.75 in1007.5 mb - 0.00 in0.0 mm 0.00 in0.0 mm
09:10 AM 37.2°F2.9°C 30.7°F-0.7°C 77% 8.1 mph E13.0 kmh E 13.8 mph22.2 kmh 29.74 in1007.1 mb - 0.00 in0.0 mm 0.00 in0.0 mm
09:15 AM 37.3°F2.9°C 30.7°F-0.7°C 77% 8.1 mph ESE13.0 kmh ESE 10.4 mph16.7 kmh 29.74 in1007.1 mb - 0.00 in0.0 mm 0.00 in0.0 mm
09:20 AM 37.4°F3.0°C 30.8°F-0.7°C 77% 6.9 mph ESE11.1 kmh ESE 11.5 mph18.5 kmh 29.73 in1006.8 mb - 0.00 in0.0 mm 0.00 in0.0 mm
09:25 AM 37.3°F2.9°C 30.7°F-0.7°C 77% 5.8 mph E9.3 kmh E 8.1 mph13.0 kmh 29.73 in1006.8 mb - 0.00 in0.0 mm 0.00 in0.0 mm
09:30 AM 37.3°F2.9°C 30.8°F-0.7°C 77% 3.5 mph ESE5.6 kmh ESE 6.9 mph11.1 kmh 29.73 in1006.8 mb - 0.00 in0.0 mm 0.00 in0.0 mm
09:35 AM 37.2°F2.9°C 30.7°F-0.7°C 77% 4.6 mph SE7.4 kmh SE 8.1 mph13.0 kmh 29.73 in1006.8 mb - 0.00 in0.0 mm 0.00 in0.0 mm
09:40 AM 37.5°F3.1°C 31.0°F-0.6°C 77% 8.1 mph E13.0 kmh E 11.5 mph18.5 kmh 29.73 in1006.8 mb - 0.00 in0.0 mm 0.00 in0.0 mm
09:45 AM 37.9°F3.3°C 31.4°F-0.3°C 77% 9.2 mph E14.8 kmh E 12.7 mph20.4 kmh 29.73 in1006.8 mb - 0.00 in0.0 mm 0.00 in0.0 mm
09:50 AM 38.2°F3.4°C 31.6°F-0.2°C 77% 9.2 mph E14.8 kmh E 12.7 mph20.4 kmh 29.73 in1006.8 mb - 0.00 in0.0 mm 0.00 in0.0 mm
09:55 AM 38.2°F3.4°C 31.6°F-0.2°C 77% 8.1 mph ESE13.0 kmh ESE 9.2 mph14.8 kmh 29.73 in1006.8 mb - 0.00 in0.0 mm 0.00 in0.0 mm
10:00 AM 38.2°F3.4°C 31.6°F-0.2°C 77% 4.6 mph NE7.4 kmh NE 6.9 mph11.1 kmh 29.73 in1006.8 mb - 0.00 in0.0 mm 0.00 in0.0 mm
10:05 AM 38.1°F3.4°C 31.5°F-0.3°C 77% 5.8 mph ESE9.3 kmh ESE 9.2 mph14.8 kmh 29.72 in1006.4 mb - 0.00 in0.0 mm 0.00 in0.0 mm
10:10 AM 38.0°F3.3°C 31.4°F-0.3°C 77% 6.9 mph ESE11.1 kmh ESE 10.4 mph16.7 kmh 29.72 in1006.4 mb - 0.00 in0.0 mm 0.00 in0.0 mm
10:15 AM 38.0°F3.3°C 31.5°F-0.3°C 77% 8.1 mph ESE13.0 kmh ESE 11.5 mph18.5 kmh 29.72 in1006.4 mb - 0.00 in0.0 mm 0.00 in0.0 mm
10:20 AM 38.1°F3.4°C 31.5°F-0.3°C 77% 8.1 mph ESE13.0 kmh ESE 12.7 mph20.4 kmh 29.72 in1006.4 mb - 0.00 in0.0 mm 0.00 in0.0 mm
10:25 AM 38.0°F3.3°C 31.4°F-0.3°C 77% 8.1 mph ESE13.0 kmh ESE 11.5 mph18.5 kmh 29.71 in1006.1 mb - 0.00 in0.0 mm 0.00 in0.0 mm
10:30 AM 37.9°F3.3°C 31.4°F-0.3°C 77% 9.2 mph ESE14.8 kmh ESE 12.7 mph20.4 kmh 29.71 in1006.1 mb - 0.00 in0.0 mm 0.00 in0.0 mm
10:35 AM 37.9°F3.3°C 31.3°F-0.4°C 77% 6.9 mph ESE11.1 kmh ESE 11.5 mph18.5 kmh 29.71 in1006.1 mb - 0.00 in0.0 mm 0.00 in0.0 mm
10:40 AM 37.8°F3.2°C 31.2°F-0.4°C 77% 4.6 mph SE7.4 kmh SE 10.4 mph16.7 kmh 29.70 in1005.8 mb - 0.00 in0.0 mm 0.00 in0.0 mm
10:45 AM 37.8°F3.2°C 31.2°F-0.4°C 77% 10.4 mph E16.7 kmh E 11.5 mph18.5 kmh 29.70 in1005.8 mb - 0.00 in0.0 mm 0.00 in0.0 mm
10:50 AM 37.8°F3.2°C 31.2°F-0.4°C 77% 11.5 mph ESE18.5 kmh ESE 18.4 mph29.6 kmh 29.69 in1005.4 mb - 0.00 in0.0 mm 0.00 in0.0 mm
10:55 AM 37.8°F3.2°C 31.2°F-0.4°C 77% 11.5 mph ESE18.5 kmh ESE 17.3 mph27.8 kmh 29.68 in1005.1 mb - 0.00 in0.0 mm 0.00 in0.0 mm
11:00 AM 37.8°F3.2°C 31.2°F-0.4°C 77% 11.5 mph ESE18.5 kmh ESE 11.5 mph18.5 kmh 29.68 in1005.1 mb - 0.00 in0.0 mm 0.00 in0.0 mm
11:05 AM 37.9°F3.3°C 31.3°F-0.4°C 77% 9.2 mph ESE14.8 kmh ESE 13.8 mph22.2 kmh 29.68 in1005.1 mb - 0.00 in0.0 mm 0.00 in0.0 mm
11:10 AM 37.9°F3.3°C 31.3°F-0.4°C 77% 11.5 mph ESE18.5 kmh ESE 13.8 mph22.2 kmh 29.67 in1004.7 mb - 0.00 in0.0 mm 0.00 in0.0 mm
11:15 AM 37.9°F3.3°C 31.3°F-0.4°C 77% 12.7 mph ESE20.4 kmh ESE 18.4 mph29.6 kmh 29.68 in1005.1 mb - 0.00 in0.0 mm 0.00 in0.0 mm
11:20 AM 38.0°F3.3°C 31.4°F-0.3°C 77% 9.2 mph ESE14.8 kmh ESE 11.5 mph18.5 kmh 29.68 in1005.1 mb - 0.00 in0.0 mm 0.00 in0.0 mm
11:25 AM 38.0°F3.3°C 31.4°F-0.3°C 77% 10.4 mph ESE16.7 kmh ESE 12.7 mph20.4 kmh 29.68 in1005.1 mb - 0.00 in0.0 mm 0.00 in0.0 mm
11:30 AM 38.0°F3.3°C 31.4°F-0.3°C 77% 9.2 mph ESE14.8 kmh ESE 13.8 mph22.2 kmh 29.68 in1005.1 mb - 0.00 in0.0 mm 0.00 in0.0 mm
11:35 AM 38.0°F3.3°C 31.4°F-0.3°C 77% 10.4 mph E16.7 kmh E 17.3 mph27.8 kmh 29.67 in1004.7 mb - 0.00 in0.0 mm 0.00 in0.0 mm
11:40 AM 38.1°F3.4°C 31.5°F-0.3°C 77% 8.1 mph ESE13.0 kmh ESE 11.5 mph18.5 kmh 29.67 in1004.7 mb - 0.00 in0.0 mm 0.00 in0.0 mm
11:45 AM 38.2°F3.4°C 31.6°F-0.2°C 77% 8.1 mph E13.0 kmh E 11.5 mph18.5 kmh 29.66 in1004.4 mb - 0.00 in0.0 mm 0.00 in0.0 mm
11:50 AM 38.3°F3.5°C 31.7°F-0.2°C 77% 4.6 mph E7.4 kmh E 6.9 mph11.1 kmh 29.66 in1004.4 mb - 0.00 in0.0 mm 0.00 in0.0 mm
11:55 AM 38.5°F3.6°C 31.9°F-0.1°C 77% 8.1 mph ESE13.0 kmh ESE 10.4 mph16.7 kmh 29.66 in1004.4 mb - 0.00 in0.0 mm 0.00 in0.0 mm
12:00 PM 38.6°F3.7°C 32.0°F0.0°C 77% 8.1 mph ESE13.0 kmh ESE 11.5 mph18.5 kmh 29.65 in1004.1 mb - 0.00 in0.0 mm 0.00 in0.0 mm
12:05 PM 38.7°F3.7°C 32.1°F0.1°C 77% 8.1 mph ESE13.0 kmh ESE 12.7 mph20.4 kmh 29.65 in1004.1 mb - 0.00 in0.0 mm 0.00 in0.0 mm
12:10 PM 38.8°F3.8°C 32.2°F0.1°C 77% 8.1 mph ESE13.0 kmh ESE 16.1 mph25.9 kmh 29.65 in1004.1 mb - 0.00 in0.0 mm 0.00 in0.0 mm
12:15 PM 38.8°F3.8°C 32.2°F0.1°C 77% 8.1 mph ESE13.0 kmh ESE 12.7 mph20.4 kmh 29.66 in1004.4 mb - 0.00 in0.0 mm 0.00 in0.0 mm
12:20 PM 38.9°F3.8°C 32.3°F0.2°C 77% 12.7 mph E20.4 kmh E 18.4 mph29.6 kmh 29.65 in1004.1 mb - 0.00 in0.0 mm 0.00 in0.0 mm
12:25 PM 38.9°F3.8°C 32.3°F0.2°C 77% 13.8 mph E22.2 kmh E 18.4 mph29.6 kmh 29.65 in1004.1 mb - 0.00 in0.0 mm 0.00 in0.0 mm
12:30 PM 39.0°F3.9°C 32.4°F0.2°C 77% 11.5 mph E18.5 kmh E 13.8 mph22.2 kmh 29.64 in1003.7 mb - 0.00 in0.0 mm 0.00 in0.0 mm
12:35 PM 39.0°F3.9°C 32.4°F0.2°C 77% 5.8 mph E9.3 kmh E 8.1 mph13.0 kmh 29.64 in1003.7 mb - 0.00 in0.0 mm 0.00 in0.0 mm
12:40 PM 38.9°F3.8°C 32.3°F0.2°C 77% 4.6 mph ESE7.4 kmh ESE 6.9 mph11.1 kmh 29.64 in1003.7 mb - 0.00 in0.0 mm 0.00 in0.0 mm
12:45 PM 38.9°F3.8°C 32.3°F0.2°C 77% 6.9 mph E11.1 kmh E 10.4 mph16.7 kmh 29.63 in1003.4 mb - 0.00 in0.0 mm 0.00 in0.0 mm
12:50 PM 39.0°F3.9°C 32.4°F0.2°C 77% 10.4 mph E16.7 kmh E 17.3 mph27.8 kmh 29.62 in1003.0 mb - 0.00 in0.0 mm 0.00 in0.0 mm
12:55 PM 39.1°F3.9°C 32.5°F0.3°C 77% 9.2 mph E14.8 kmh E 11.5 mph18.5 kmh 29.61 in1002.7 mb - 0.00 in0.0 mm 0.00 in0.0 mm
01:00 PM 39.2°F4.0°C 32.6°F0.3°C 77% 10.4 mph ESE16.7 kmh ESE 15.0 mph24.1 kmh 29.61 in1002.7 mb - 0.00 in0.0 mm 0.00 in0.0 mm
01:05 PM 39.1°F3.9°C 32.5°F0.3°C 77% 8.1 mph E13.0 kmh E 11.5 mph18.5 kmh 29.61 in1002.7 mb - 0.00 in0.0 mm 0.00 in0.0 mm
01:10 PM 39.1°F3.9°C 32.5°F0.3°C 77% 9.2 mph E14.8 kmh E 13.8 mph22.2 kmh 29.61 in1002.7 mb - 0.00 in0.0 mm 0.00 in0.0 mm
01:15 PM 39.1°F3.9°C 32.5°F0.3°C 77% 11.5 mph ESE18.5 kmh ESE 15.0 mph24.1 kmh 29.61 in1002.7 mb - 0.00 in0.0 mm 0.00 in0.0 mm
01:20 PM 39.1°F3.9°C 32.5°F0.3°C 77% 8.1 mph E13.0 kmh E 9.2 mph14.8 kmh 29.61 in1002.7 mb - 0.00 in0.0 mm 0.00 in0.0 mm
01:25 PM 39.1°F3.9°C 32.5°F0.3°C 77% 9.2 mph E14.8 kmh E 11.5 mph18.5 kmh 29.61 in1002.7 mb - 0.00 in0.0 mm 0.00 in0.0 mm
01:30 PM 39.1°F3.9°C 32.5°F0.3°C 77% 12.7 mph E20.4 kmh E 18.4 mph29.6 kmh 29.59 in1002.0 mb - 0.00 in0.0 mm 0.00 in0.0 mm
01:35 PM 39.2°F4.0°C 32.6°F0.3°C 77% 16.1 mph E25.9 kmh E 20.7 mph33.3 kmh 29.59 in1002.0 mb - 0.00 in0.0 mm 0.00 in0.0 mm
01:40 PM 39.2°F4.0°C 32.6°F0.3°C 77% 11.5 mph ESE18.5 kmh ESE 16.1 mph25.9 kmh 29.58 in1001.7 mb - 0.00 in0.0 mm 0.00 in0.0 mm
01:45 PM 39.3°F4.1°C 32.7°F0.4°C 77% 11.5 mph E18.5 kmh E 17.3 mph27.8 kmh 29.58 in1001.7 mb - 0.00 in0.0 mm 0.00 in0.0 mm
01:50 PM 39.2°F4.0°C 32.6°F0.3°C 77% 9.2 mph ESE14.8 kmh ESE 13.8 mph22.2 kmh 29.58 in1001.7 mb - 0.00 in0.0 mm 0.00 in0.0 mm
01:55 PM 39.2°F4.0°C 32.6°F0.3°C 77% 9.2 mph ESE14.8 kmh ESE 13.8 mph22.2 kmh 29.58 in1001.7 mb - 0.00 in0.0 mm 0.00 in0.0 mm
02:00 PM 39.2°F4.0°C 32.6°F0.3°C 77% 5.8 mph SE9.3 kmh SE 8.1 mph13.0 kmh 29.59 in1002.0 mb - 0.00 in0.0 mm 0.00 in0.0 mm
02:05 PM 39.1°F3.9°C 32.5°F0.3°C 77% 8.1 mph SE13.0 kmh SE 11.5 mph18.5 kmh 29.61 in1002.7 mb - 0.00 in0.0 mm 0.00 in0.0 mm
02:10 PM 39.1°F3.9°C 32.5°F0.3°C 77% 9.2 mph ESE14.8 kmh ESE 12.7 mph20.4 kmh 29.61 in1002.7 mb - 0.00 in0.0 mm 0.00 in0.0 mm
02:15 PM 39.1°F3.9°C 32.5°F0.3°C 77% 10.4 mph ESE16.7 kmh ESE 15.0 mph24.1 kmh 29.59 in1002.0 mb - 0.00 in0.0 mm 0.00 in0.0 mm
02:20 PM 39.1°F3.9°C 32.5°F0.3°C 77% 8.1 mph ESE13.0 kmh ESE 11.5 mph18.5 kmh 29.60 in1002.4 mb - 0.00 in0.0 mm 0.00 in0.0 mm
02:25 PM 39.1°F3.9°C 32.5°F0.3°C 77% 8.1 mph E13.0 kmh E 11.5 mph18.5 kmh 29.60 in1002.4 mb - 0.00 in0.0 mm 0.00 in0.0 mm
02:30 PM 39.1°F3.9°C 32.5°F0.3°C 77% 9.2 mph E14.8 kmh E 12.7 mph20.4 kmh 29.59 in1002.0 mb - 0.00 in0.0 mm 0.00 in0.0 mm
02:35 PM 39.1°F3.9°C 32.5°F0.3°C 77% 3.5 mph E5.6 kmh E 9.2 mph14.8 kmh 29.60 in1002.4 mb - 0.00 in0.0 mm 0.00 in0.0 mm
02:40 PM 39.1°F3.9°C 32.5°F0.3°C 77% 5.8 mph ESE9.3 kmh ESE 8.1 mph13.0 kmh 29.59 in1002.0 mb - 0.00 in0.0 mm 0.00 in0.0 mm
02:45 PM 39.0°F3.9°C 32.4°F0.2°C 77% 8.1 mph ESE13.0 kmh ESE 11.5 mph18.5 kmh 29.58 in1001.7 mb - 0.00 in0.0 mm 0.00 in0.0 mm
02:50 PM 39.0°F3.9°C 32.4°F0.2°C 77% 9.2 mph E14.8 kmh E 13.8 mph22.2 kmh 29.59 in1002.0 mb - 0.00 in0.0 mm 0.00 in0.0 mm
02:55 PM 39.0°F3.9°C 32.4°F0.2°C 77% 6.9 mph E11.1 kmh E 13.8 mph22.2 kmh 29.58 in1001.7 mb - 0.00 in0.0 mm 0.00 in0.0 mm
03:00 PM 39.0°F3.9°C 32.4°F0.2°C 77% 6.9 mph E11.1 kmh E 9.2 mph14.8 kmh 29.57 in1001.4 mb - 0.00 in0.0 mm 0.00 in0.0 mm
03:05 PM 39.1°F3.9°C 32.5°F0.3°C 77% 8.1 mph ESE13.0 kmh ESE 11.5 mph18.5 kmh 29.58 in1001.7 mb - 0.00 in0.0 mm 0.00 in0.0 mm
03:10 PM 39.0°F3.9°C 32.4°F0.2°C 77% 3.5 mph ESE5.6 kmh ESE 6.9 mph11.1 kmh 29.58 in1001.7 mb - 0.00 in0.0 mm 0.00 in0.0 mm
03:15 PM 39.0°F3.9°C 32.4°F0.2°C 77% 6.9 mph E11.1 kmh E 10.4 mph16.7 kmh 29.57 in1001.4 mb - 0.00 in0.0 mm 0.00 in0.0 mm
03:20 PM 39.1°F3.9°C 32.5°F0.3°C 77% 8.1 mph ESE13.0 kmh ESE 10.4 mph16.7 kmh 29.57 in1001.4 mb - 0.00 in0.0 mm 0.00 in0.0 mm
03:25 PM 39.0°F3.9°C 32.4°F0.2°C 77% 9.2 mph E14.8 kmh E 11.5 mph18.5 kmh 29.56 in1001.0 mb - 0.00 in0.0 mm 0.00 in0.0 mm
03:30 PM 39.0°F3.9°C 32.4°F0.2°C 77% 10.4 mph E16.7 kmh E 13.8 mph22.2 kmh 29.55 in1000.7 mb - 0.00 in0.0 mm 0.00 in0.0 mm
03:35 PM 38.9°F3.8°C 32.3°F0.2°C 77% 9.2 mph ESE14.8 kmh ESE 15.0 mph24.1 kmh 29.54 in1000.3 mb - 0.00 in0.0 mm 0.00 in0.0 mm
03:40 PM 39.1°F3.9°C 32.5°F0.3°C 77% 11.5 mph E18.5 kmh E 13.8 mph22.2 kmh 29.54 in1000.3 mb - 0.00 in0.0 mm 0.00 in0.0 mm
03:45 PM 39.3°F4.1°C 32.7°F0.4°C 77% 12.7 mph ESE20.4 kmh ESE 18.4 mph29.6 kmh 29.55 in1000.7 mb - 0.00 in0.0 mm 0.00 in0.0 mm
03:50 PM 39.3°F4.1°C 32.7°F0.4°C 77% 8.1 mph ESE13.0 kmh ESE 11.5 mph18.5 kmh 29.55 in1000.7 mb - 0.00 in0.0 mm 0.00 in0.0 mm
03:55 PM 39.3°F4.1°C 32.7°F0.4°C 77% 10.4 mph E16.7 kmh E 12.7 mph20.4 kmh 29.54 in1000.3 mb - 0.00 in0.0 mm 0.00 in0.0 mm
04:00 PM 39.2°F4.0°C 32.6°F0.3°C 77% 8.1 mph SE13.0 kmh SE 11.5 mph18.5 kmh 29.55 in1000.7 mb - 0.00 in0.0 mm 0.00 in0.0 mm
04:05 PM 39.2°F4.0°C 32.6°F0.3°C 77% 8.1 mph SE13.0 kmh SE 12.7 mph20.4 kmh 29.55 in1000.7 mb - 0.00 in0.0 mm 0.00 in0.0 mm
04:10 PM 39.2°F4.0°C 32.6°F0.3°C 77% 8.1 mph ESE13.0 kmh ESE 11.5 mph18.5 kmh 29.55 in1000.7 mb - 0.00 in0.0 mm 0.00 in0.0 mm
04:15 PM 39.1°F3.9°C 32.5°F0.3°C 77% 6.9 mph ESE11.1 kmh ESE 9.2 mph14.8 kmh 29.55 in1000.7 mb - 0.00 in0.0 mm 0.00 in0.0 mm
04:20 PM 39.1°F3.9°C 32.5°F0.3°C 77% 6.9 mph ESE11.1 kmh ESE 11.5 mph18.5 kmh 29.54 in1000.3 mb - 0.00 in0.0 mm 0.00 in0.0 mm
04:25 PM 39.1°F3.9°C 32.5°F0.3°C 77% 10.4 mph E16.7 kmh E 15.0 mph24.1 kmh 29.55 in1000.7 mb - 0.00 in0.0 mm 0.00 in0.0 mm
04:30 PM 39.1°F3.9°C 32.5°F0.3°C 77% 8.1 mph ESE13.0 kmh ESE 11.5 mph18.5 kmh 29.55 in1000.7 mb - 0.00 in0.0 mm 0.00 in0.0 mm
04:35 PM 39.1°F3.9°C 32.5°F0.3°C 77% 8.1 mph ESE13.0 kmh ESE 11.5 mph18.5 kmh 29.55 in1000.7 mb - 0.00 in0.0 mm 0.00 in0.0 mm
04:40 PM 39.1°F3.9°C 32.8°F0.4°C 78% 4.6 mph E7.4 kmh E 10.4 mph16.7 kmh 29.55 in1000.7 mb - 0.00 in0.0 mm 0.00 in0.0 mm
04:45 PM 39.1°F3.9°C 32.8°F0.4°C 78% 6.9 mph ESE11.1 kmh ESE 13.8 mph22.2 kmh 29.55 in1000.7 mb - 0.00 in0.0 mm 0.00 in0.0 mm
04:50 PM 39.1°F3.9°C 32.8°F0.4°C 78% 9.2 mph E14.8 kmh E 12.7 mph20.4 kmh 29.55 in1000.7 mb - 0.00 in0.0 mm 0.00 in0.0 mm
04:55 PM 39.1°F3.9°C 32.8°F0.4°C 78% 10.4 mph ESE16.7 kmh ESE 13.8 mph22.2 kmh 29.55 in1000.7 mb - 0.00 in0.0 mm 0.00 in0.0 mm
05:00 PM 39.2°F4.0°C 32.9°F0.5°C 78% 10.4 mph E16.7 kmh E 12.7 mph20.4 kmh 29.55 in1000.7 mb - 0.00 in0.0 mm 0.00 in0.0 mm
05:05 PM 39.2°F4.0°C 32.6°F0.3°C 77% 9.2 mph E14.8 kmh E 13.8 mph22.2 kmh 29.54 in1000.3 mb - 0.00 in0.0 mm 0.00 in0.0 mm
05:10 PM 39.2°F4.0°C 32.6°F0.3°C 77% 8.1 mph ESE13.0 kmh ESE 11.5 mph18.5 kmh 29.54 in1000.3 mb - 0.00 in0.0 mm 0.00 in0.0 mm
05:15 PM 39.2°F4.0°C 32.9°F0.5°C 78% 9.2 mph E14.8 kmh E 10.4 mph16.7 kmh 29.54 in1000.3 mb - 0.00 in0.0 mm 0.00 in0.0 mm
05:20 PM 39.2°F4.0°C 32.6°F0.3°C 77% 9.2 mph ESE14.8 kmh ESE 12.7 mph20.4 kmh 29.54 in1000.3 mb - 0.00 in0.0 mm 0.00 in0.0 mm
05:25 PM 39.2°F4.0°C 33.0°F0.6°C 78% 8.1 mph ESE13.0 kmh ESE 12.7 mph20.4 kmh 29.54 in1000.3 mb - 0.00 in0.0 mm 0.00 in0.0 mm
05:30 PM 39.3°F4.1°C 33.0°F0.6°C 78% 4.6 mph ESE7.4 kmh ESE 6.9 mph11.1 kmh 29.54 in1000.3 mb - 0.00 in0.0 mm 0.00 in0.0 mm
05:35 PM 39.2°F4.0°C 32.9°F0.5°C 78% 6.9 mph E11.1 kmh E 8.1 mph13.0 kmh 29.54 in1000.3 mb - 0.00 in0.0 mm 0.00 in0.0 mm
05:40 PM 39.2°F4.0°C 32.9°F0.5°C 78% 4.6 mph ESE7.4 kmh ESE 6.9 mph11.1 kmh 29.54 in1000.3 mb - 0.00 in0.0 mm 0.00 in0.0 mm
05:45 PM 39.1°F3.9°C 32.5°F0.3°C 77% 6.9 mph E11.1 kmh E 8.1 mph13.0 kmh 29.53 in1000.0 mb - 0.00 in0.0 mm 0.00 in0.0 mm
05:50 PM 39.1°F3.9°C 32.5°F0.3°C 77% 4.6 mph SE7.4 kmh SE 3.5 mph5.6 kmh 29.53 in1000.0 mb - 0.00 in0.0 mm 0.00 in0.0 mm
05:55 PM 39.1°F3.9°C 32.5°F0.3°C 77% 4.6 mph ESE7.4 kmh ESE 8.1 mph13.0 kmh 29.53 in1000.0 mb - 0.00 in0.0 mm 0.00 in0.0 mm
06:00 PM 39.1°F3.9°C 32.5°F0.3°C 77% 4.6 mph E7.4 kmh E 5.8 mph9.3 kmh 29.53 in1000.0 mb - 0.00 in0.0 mm 0.00 in0.0 mm
06:05 PM 39.1°F3.9°C 32.5°F0.3°C 77% 3.5 mph SE5.6 kmh SE 3.5 mph5.6 kmh 29.53 in1000.0 mb - 0.00 in0.0 mm 0.00 in0.0 mm
06:10 PM 39.0°F3.9°C 32.4°F0.2°C 77% 3.5 mph E5.6 kmh E 6.9 mph11.1 kmh 29.53 in1000.0 mb - 0.00 in0.0 mm 0.00 in0.0 mm
06:15 PM 38.9°F3.8°C 32.7°F0.4°C 78% 8.1 mph E13.0 kmh E 10.4 mph16.7 kmh 29.53 in1000.0 mb - 0.00 in0.0 mm 0.00 in0.0 mm
06:20 PM 39.0°F3.9°C 32.7°F0.4°C 78% 5.8 mph ESE9.3 kmh ESE 9.2 mph14.8 kmh 29.53 in1000.0 mb - 0.00 in0.0 mm 0.00 in0.0 mm
06:25 PM 39.0°F3.9°C 32.7°F0.4°C 78% 4.6 mph E7.4 kmh E 9.2 mph14.8 kmh 29.52 in999.7 mb - 0.00 in0.0 mm 0.00 in0.0 mm
06:30 PM 39.0°F3.9°C 32.7°F0.4°C 78% 5.8 mph ESE9.3 kmh ESE 9.2 mph14.8 kmh 29.52 in999.7 mb - 0.00 in0.0 mm 0.00 in0.0 mm
06:35 PM 39.0°F3.9°C 32.7°F0.4°C 78% 8.1 mph ESE13.0 kmh ESE 11.5 mph18.5 kmh 29.53 in1000.0 mb - 0.00 in0.0 mm 0.00 in0.0 mm
06:40 PM 39.0°F3.9°C 32.8°F0.4°C 78% 6.9 mph ESE11.1 kmh ESE 11.5 mph18.5 kmh 29.52 in999.7 mb - 0.00 in0.0 mm 0.00 in0.0 mm
06:45 PM 39.1°F3.9°C 32.5°F0.3°C 77% 8.1 mph ESE13.0 kmh ESE 11.5 mph18.5 kmh 29.52 in999.7 mb - 0.00 in0.0 mm 0.00 in0.0 mm
06:50 PM 39.1°F3.9°C 32.5°F0.3°C 77% 8.1 mph ESE13.0 kmh ESE 9.2 mph14.8 kmh 29.52 in999.7 mb - 0.00 in0.0 mm 0.00 in0.0 mm
06:55 PM 39.1°F3.9°C 32.5°F0.3°C 77% 9.2 mph E14.8 kmh E 13.8 mph22.2 kmh 29.52 in999.7 mb - 0.00 in0.0 mm 0.00 in0.0 mm
07:00 PM 39.1°F3.9°C 32.5°F0.3°C 77% 6.9 mph E11.1 kmh E 11.5 mph18.5 kmh 29.53 in1000.0 mb - 0.00 in0.0 mm 0.00 in0.0 mm
07:05 PM 39.0°F3.9°C 32.4°F0.2°C 77% 5.8 mph E9.3 kmh E 9.2 mph14.8 kmh 29.53 in1000.0 mb - 0.00 in0.0 mm 0.00 in0.0 mm
07:10 PM 39.0°F3.9°C 32.4°F0.2°C 77% 8.1 mph E13.0 kmh E 11.5 mph18.5 kmh 29.53 in1000.0 mb - 0.00 in0.0 mm 0.00 in0.0 mm
07:15 PM 39.0°F3.9°C 32.4°F0.2°C 77% 5.8 mph ESE9.3 kmh ESE 9.2 mph14.8 kmh 29.53 in1000.0 mb - 0.00 in0.0 mm 0.00 in0.0 mm
07:20 PM 39.0°F3.9°C 32.4°F0.2°C 77% 6.9 mph ESE11.1 kmh ESE 9.2 mph14.8 kmh 29.53 in1000.0 mb - 0.00 in0.0 mm 0.00 in0.0 mm
07:25 PM 39.0°F3.9°C 32.4°F0.2°C 77% 5.8 mph E9.3 kmh E 8.1 mph13.0 kmh 29.53 in1000.0 mb - 0.00 in0.0 mm 0.00 in0.0 mm
07:30 PM 39.0°F3.9°C 32.4°F0.2°C 77% 3.5 mph E5.6 kmh E 6.9 mph11.1 kmh 29.53 in1000.0 mb - 0.00 in0.0 mm 0.00 in0.0 mm
07:35 PM 39.0°F3.9°C 32.4°F0.2°C 77% 4.6 mph E7.4 kmh E 5.8 mph9.3 kmh 29.53 in1000.0 mb - 0.00 in0.0 mm 0.00 in0.0 mm
07:40 PM 38.9°F3.8°C 32.3°F0.2°C 77% 3.5 mph E5.6 kmh E 8.1 mph13.0 kmh 29.53 in1000.0 mb - 0.00 in0.0 mm 0.00 in0.0 mm
07:45 PM 38.9°F3.8°C 32.3°F0.2°C 77% 4.6 mph E7.4 kmh E 6.9 mph11.1 kmh 29.52 in999.7 mb - 0.00 in0.0 mm 0.00 in0.0 mm
07:50 PM 38.9°F3.8°C 32.3°F0.2°C 77% 5.8 mph E9.3 kmh E 6.9 mph11.1 kmh 29.52 in999.7 mb - 0.00 in0.0 mm 0.00 in0.0 mm
07:55 PM 38.8°F3.8°C 32.2°F0.1°C 77% 3.5 mph E5.6 kmh E 6.9 mph11.1 kmh 29.53 in1000.0 mb - 0.00 in0.0 mm 0.00 in0.0 mm
08:00 PM 38.7°F3.7°C 32.1°F0.1°C 77% 8.1 mph E13.0 kmh E 10.4 mph16.7 kmh 29.52 in999.7 mb - 0.00 in0.0 mm 0.00 in0.0 mm
08:05 PM 38.7°F3.7°C 32.1°F0.1°C 77% 6.9 mph E11.1 kmh E 11.5 mph18.5 kmh 29.52 in999.7 mb - 0.00 in0.0 mm 0.00 in0.0 mm
08:10 PM 38.7°F3.7°C 32.1°F0.1°C 77% 4.6 mph E7.4 kmh E 9.2 mph14.8 kmh 29.52 in999.7 mb - 0.00 in0.0 mm 0.00 in0.0 mm
08:15 PM 38.6°F3.7°C 32.0°F0.0°C 77% 4.6 mph E7.4 kmh E 6.9 mph11.1 kmh 29.52 in999.7 mb - 0.00 in0.0 mm 0.00 in0.0 mm
08:20 PM 38.7°F3.7°C 32.1°F0.1°C 77% 4.6 mph E7.4 kmh E 8.1 mph13.0 kmh 29.52 in999.7 mb - 0.00 in0.0 mm 0.00 in0.0 mm
08:25 PM 38.7°F3.7°C 32.1°F0.1°C 77% 6.9 mph E11.1 kmh E 10.4 mph16.7 kmh 29.52 in999.7 mb - 0.00 in0.0 mm 0.00 in0.0 mm
08:30 PM 38.8°F3.8°C 32.2°F0.1°C 77% 3.5 mph E5.6 kmh E 5.8 mph9.3 kmh 29.52 in999.7 mb - 0.00 in0.0 mm 0.00 in0.0 mm
08:35 PM 38.7°F3.7°C 32.1°F0.1°C 77% 6.9 mph E11.1 kmh E 9.2 mph14.8 kmh 29.51 in999.3 mb - 0.00 in0.0 mm 0.00 in0.0 mm
08:40 PM 38.7°F3.7°C 32.1°F0.1°C 77% 5.8 mph E9.3 kmh E 6.9 mph11.1 kmh 29.51 in999.3 mb - 0.00 in0.0 mm 0.00 in0.0 mm
08:45 PM 38.7°F3.7°C 32.1°F0.1°C 77% 3.5 mph ESE5.6 kmh ESE 9.2 mph14.8 kmh 29.51 in999.3 mb - 0.00 in0.0 mm 0.00 in0.0 mm
08:50 PM 38.6°F3.7°C 32.0°F0.0°C 77% 5.8 mph E9.3 kmh E 9.2 mph14.8 kmh 29.50 in999.0 mb - 0.00 in0.0 mm 0.00 in0.0 mm
08:55 PM 38.6°F3.7°C 32.0°F0.0°C 77% 6.9 mph ESE11.1 kmh ESE 9.2 mph14.8 kmh 29.51 in999.3 mb - 0.00 in0.0 mm 0.00 in0.0 mm
09:00 PM 38.6°F3.7°C 32.0°F0.0°C 77% 5.8 mph ESE9.3 kmh ESE 9.2 mph14.8 kmh 29.51 in999.3 mb - 0.00 in0.0 mm 0.00 in0.0 mm
09:05 PM 38.5°F3.6°C 31.9°F-0.1°C 77% 6.9 mph ESE11.1 kmh ESE 9.2 mph14.8 kmh 29.51 in999.3 mb - 0.00 in0.0 mm 0.00 in0.0 mm
09:10 PM 38.5°F3.6°C 31.9°F-0.1°C 77% 6.9 mph E11.1 kmh E 8.1 mph13.0 kmh 29.51 in999.3 mb - 0.00 in0.0 mm 0.00 in0.0 mm
09:15 PM 38.5°F3.6°C 31.9°F-0.1°C 77% 6.9 mph E11.1 kmh E 10.4 mph16.7 kmh 29.51 in999.3 mb - 0.00 in0.0 mm 0.00 in0.0 mm
09:20 PM 38.4°F3.6°C 31.8°F-0.1°C 77% 8.1 mph E13.0 kmh E 11.5 mph18.5 kmh 29.51 in999.3 mb - 0.00 in0.0 mm 0.00 in0.0 mm
09:25 PM 38.4°F3.6°C 31.8°F-0.1°C 77% 5.8 mph E9.3 kmh E 8.1 mph13.0 kmh 29.51 in999.3 mb - 0.00 in0.0 mm 0.00 in0.0 mm
09:30 PM 38.3°F3.5°C 31.7°F-0.2°C 77% 8.1 mph E13.0 kmh E 10.4 mph16.7 kmh 29.50 in999.0 mb - 0.00 in0.0 mm 0.00 in0.0 mm
09:35 PM 38.3°F3.5°C 31.7°F-0.2°C 77% 5.8 mph E9.3 kmh E 8.1 mph13.0 kmh 29.50 in999.0 mb - 0.00 in0.0 mm 0.00 in0.0 mm
09:40 PM 38.3°F3.5°C 31.7°F-0.2°C 77% 4.6 mph ESE7.4 kmh ESE 5.8 mph9.3 kmh 29.50 in999.0 mb - 0.00 in0.0 mm 0.00 in0.0 mm
09:45 PM 38.3°F3.5°C 31.7°F-0.2°C 77% 6.9 mph E11.1 kmh E 8.1 mph13.0 kmh 29.50 in999.0 mb - 0.00 in0.0 mm 0.00 in0.0 mm
09:50 PM 38.2°F3.4°C 31.6°F-0.2°C 77% 6.9 mph ESE11.1 kmh ESE 8.1 mph13.0 kmh 29.50 in999.0 mb - 0.00 in0.0 mm 0.00 in0.0 mm
09:55 PM 38.1°F3.4°C 31.5°F-0.3°C 77% 5.8 mph ESE9.3 kmh ESE 8.1 mph13.0 kmh 29.51 in999.3 mb - 0.00 in0.0 mm 0.00 in0.0 mm
10:00 PM 38.0°F3.3°C 31.4°F-0.3°C 77% 8.1 mph ESE13.0 kmh ESE 10.4 mph16.7 kmh 29.50 in999.0 mb - 0.00 in0.0 mm 0.00 in0.0 mm
10:05 PM 38.0°F3.3°C 31.4°F-0.3°C 77% 6.9 mph ESE11.1 kmh ESE 8.1 mph13.0 kmh 29.50 in999.0 mb - 0.00 in0.0 mm 0.00 in0.0 mm
10:10 PM 38.1°F3.4°C 31.5°F-0.3°C 77% 4.6 mph E7.4 kmh E 11.5 mph18.5 kmh 29.50 in999.0 mb - 0.00 in0.0 mm 0.00 in0.0 mm
10:15 PM 38.2°F3.4°C 31.6°F-0.2°C 77% 6.9 mph ESE11.1 kmh ESE 9.2 mph14.8 kmh 29.50 in999.0 mb - 0.00 in0.0 mm 0.00 in0.0 mm
10:20 PM 38.2°F3.4°C 31.6°F-0.2°C 77% 5.8 mph ESE9.3 kmh ESE 9.2 mph14.8 kmh 29.50 in999.0 mb - 0.00 in0.0 mm 0.00 in0.0 mm
10:25 PM 38.1°F3.4°C 31.5°F-0.3°C 77% 4.6 mph E7.4 kmh E 10.4 mph16.7 kmh 29.50 in999.0 mb - 0.00 in0.0 mm 0.00 in0.0 mm
10:30 PM 37.9°F3.3°C 31.4°F-0.3°C 77% 8.1 mph E13.0 kmh E 11.5 mph18.5 kmh 29.49 in998.6 mb - 0.00 in0.0 mm 0.00 in0.0 mm
10:35 PM 37.9°F3.3°C 31.3°F-0.4°C 77% 8.1 mph E13.0 kmh E 9.2 mph14.8 kmh 29.49 in998.6 mb - 0.00 in0.0 mm 0.00 in0.0 mm
10:40 PM 37.9°F3.3°C 31.3°F-0.4°C 77% 8.1 mph E13.0 kmh E 13.8 mph22.2 kmh 29.49 in998.6 mb - 0.00 in0.0 mm 0.00 in0.0 mm
10:45 PM 38.0°F3.3°C 31.4°F-0.3°C 77% 6.9 mph E11.1 kmh E 11.5 mph18.5 kmh 29.48 in998.3 mb - 0.00 in0.0 mm 0.00 in0.0 mm
10:50 PM 38.1°F3.4°C 31.5°F-0.3°C 77% 10.4 mph E16.7 kmh E 11.5 mph18.5 kmh 29.48 in998.3 mb - 0.00 in0.0 mm 0.00 in0.0 mm
10:55 PM 38.1°F3.4°C 31.6°F-0.2°C 77% 8.1 mph E13.0 kmh E 9.2 mph14.8 kmh 29.47 in998.0 mb - 0.00 in0.0 mm 0.00 in0.0 mm
11:00 PM 38.2°F3.4°C 31.6°F-0.2°C 77% 10.4 mph E16.7 kmh E 13.8 mph22.2 kmh 29.47 in998.0 mb - 0.00 in0.0 mm 0.00 in0.0 mm
11:05 PM 38.2°F3.4°C 31.6°F-0.2°C 77% 8.1 mph ESE13.0 kmh ESE 13.8 mph22.2 kmh 29.47 in998.0 mb - 0.00 in0.0 mm 0.00 in0.0 mm
11:10 PM 38.1°F3.4°C 31.5°F-0.3°C 77% 5.8 mph ESE9.3 kmh ESE 9.2 mph14.8 kmh 29.48 in998.3 mb - 0.00 in0.0 mm 0.00 in0.0 mm
11:15 PM 38.1°F3.4°C 31.5°F-0.3°C 77% 3.5 mph ESE5.6 kmh ESE 6.9 mph11.1 kmh 29.48 in998.3 mb - 0.00 in0.0 mm 0.00 in0.0 mm
11:20 PM 38.0°F3.3°C 31.5°F-0.3°C 77% 5.8 mph E9.3 kmh E 6.9 mph11.1 kmh 29.49 in998.6 mb - 0.00 in0.0 mm 0.00 in0.0 mm
11:25 PM 38.0°F3.3°C 31.4°F-0.3°C 77% 5.8 mph E9.3 kmh E 9.2 mph14.8 kmh 29.49 in998.6 mb - 0.00 in0.0 mm 0.00 in0.0 mm
11:30 PM 38.0°F3.3°C 31.4°F-0.3°C 77% 6.9 mph ESE11.1 kmh ESE 10.4 mph16.7 kmh 29.49 in998.6 mb - 0.00 in0.0 mm 0.00 in0.0 mm
11:35 PM 38.0°F3.3°C 31.4°F-0.3°C 77% 4.6 mph ESE7.4 kmh ESE 6.9 mph11.1 kmh 29.49 in998.6 mb - 0.00 in0.0 mm 0.00 in0.0 mm
11:40 PM 37.9°F3.3°C 31.3°F-0.4°C 77% 4.6 mph ESE7.4 kmh ESE 9.2 mph14.8 kmh 29.49 in998.6 mb - 0.00 in0.0 mm 0.00 in0.0 mm
11:45 PM 37.7°F3.2°C 31.1°F-0.5°C 77% 6.9 mph SE11.1 kmh SE 9.2 mph14.8 kmh 29.50 in999.0 mb - 0.00 in0.0 mm 0.00 in0.0 mm
11:50 PM 37.5°F3.1°C 30.9°F-0.6°C 77% 4.6 mph ESE7.4 kmh ESE 9.2 mph14.8 kmh 29.50 in999.0 mb - 0.00 in0.0 mm 0.00 in0.0 mm
11:55 PM 37.4°F3.0°C 30.8°F-0.7°C 77% 6.9 mph E11.1 kmh E 12.7 mph20.4 kmh 29.50 in999.0 mb - 0.00 in0.0 mm 0.00 in0.0 mm